Time;durP1;ratioP1;P1;durP2;ratioP2;P2;SDS_P1;SDS_P2;PMS_P1;PMS_P2;Temp;Humidity;BMP_temperature;BMP_pressure;BME280_temperature;BME280_humidity;BME280_pressure;Samples;Min_cycle;Max_cycle;Signal;HPM_P1;HPM_P2
2022/10/15 00:00:44;;;;;;;;;;;;;;;18.73;60.54;99726.38;4924390;28;7206;-84
2022/10/15 00:03:09;;;;;;;;;;;;;;;18.69;60.00;99735.03;4933344;28;8441;-84
2022/10/15 00:05:37;;;;;;;;;;;;;;;18.65;60.23;99733.28;4920422;29;7016;-84
2022/10/15 00:08:03;;;;;;;;;;;;;;;18.63;59.94;99737.59;4952887;28;7008;-84
2022/10/15 00:10:29;;;;;;;;;;;;;;;18.57;60.40;99731.50;4909812;29;7123;-84
2022/10/15 00:12:55;;;;;;;;;;;;;;;18.54;60.92;99734.09;4936914;28;7217;-84
2022/10/15 00:15:21;;;;;;;;;;;;;;;18.52;60.32;99727.16;4910653;29;8011;-84
2022/10/15 00:17:46;;;;;;;;;;;;;;;18.51;60.57;99728.03;4958333;28;7166;-84
2022/10/15 00:20:13;;;;;;;;;;;;;;;18.49;60.37;99722.81;4916586;28;8396;-84
2022/10/15 00:22:39;;;;;;;;;;;;;;;18.46;60.67;99723.69;4927248;28;6965;-84
2022/10/15 00:25:06;;;;;;;;;;;;;;;18.46;60.48;99722.81;4953609;28;8229;-84
2022/10/15 00:27:33;;;;;;;;;;;;;;;18.44;60.38;99719.34;4928142;28;7132;-84
2022/10/15 00:30:01;;;;;;;;;;;;;;;18.43;60.97;99718.47;4925050;28;8667;-84
2022/10/15 00:32:29;;;;;;;;;;;;;;;18.43;60.63;99713.28;4925819;28;8442;-85
2022/10/15 00:34:54;;;;;;;;;;;;;;;18.43;60.33;99721.06;4936265;28;6988;-84
2022/10/15 00:37:21;;;;;;;;;;;;;;;18.43;60.71;99717.63;4942005;28;7031;-84
2022/10/15 00:39:47;;;;;;;;;;;;;;;18.42;60.59;99723.66;4940533;28;7206;-84
2022/10/15 00:42:13;;;;;;;;;;;;;;;18.39;60.58;99716.72;4922481;28;8245;-84
2022/10/15 00:44:55;;;;;;;;;;;;;;;18.37;60.34;99728.84;4904700;29;8108;-84
2022/10/15 00:47:37;;;;;;;;;;;;;;;18.35;60.64;99730.56;4902057;28;8828;-84
2022/10/15 00:50:15;;;;;;;;;;;;;;;18.35;60.35;99732.28;4929417;28;8557;-84
2022/10/15 00:53:01;;;;;;;;;;;;;;;18.31;60.88;99734.84;4935064;28;7238;-84
2022/10/15 00:55:32;;;;;;;;;;;;;;;18.30;60.70;99732.25;4922476;28;7002;-84
2022/10/15 00:58:12;;;;;;;;;;;;;;;18.32;60.75;99746.09;4927791;28;9478;-84
2022/10/15 01:00:38;;;;;;;;;;;;;;;18.31;60.69;99740.03;4908698;28;7003;-84
2022/10/15 01:03:04;;;;;;;;;;;;;;;18.33;60.95;99740.03;4924641;28;8700;-84
2022/10/15 01:05:29;;;;;;;;;;;;;;;18.35;60.81;99740.06;4926415;28;6985;-84
2022/10/15 01:07:55;;;;;;;;;;;;;;;18.36;61.26;99746.97;4912374;29;8496;-84
2022/10/15 01:10:26;;;;;;;;;;;;;;;18.38;60.99;99745.25;4925882;29;6969;-84
2022/10/15 01:13:25;;;;;;;;;;;;;;;18.39;60.90;99740.09;4925584;29;7207;-84
2022/10/15 01:16:03;;;;;;;;;;;;;;;18.41;61.25;99738.34;4926474;29;7250;-84
2022/10/15 01:19:00;;;;;;;;;;;;;;;18.45;61.02;99749.63;4942024;28;8649;-84
2022/10/15 01:22:01;;;;;;;;;;;;;;;18.45;61.40;99755.69;4936827;28;7445;-84
2022/10/15 01:25:15;;;;;;;;;;;;;;;18.47;60.98;99750.50;4919295;29;6986;-84
2022/10/15 01:28:06;;;;;;;;;;;;;;;18.49;61.25;99751.34;4923997;28;7229;-84
2022/10/15 01:30:41;;;;;;;;;;;;;;;18.50;60.98;99739.25;4913513;28;7209;-84
2022/10/15 01:33:39;;;;;;;;;;;;;;;18.52;60.66;99748.81;4925469;28;7211;-84
2022/10/15 01:36:22;;;;;;;;;;;;;;;18.53;60.97;99741.88;4957224;28;7057;-84
2022/10/15 01:39:13;;;;;;;;;;;;;;;18.55;60.83;99742.75;4912196;29;7232;-84
2022/10/15 01:41:51;;;;;;;;;;;;;;;18.56;61.14;99739.31;4927375;28;8803;-84
2022/10/15 01:44:37;;;;;;;;;;;;;;;18.57;60.90;99730.66;4901645;29;7062;-84
2022/10/15 01:47:18;;;;;;;;;;;;;;;18.59;60.44;99728.94;4929326;28;8454;-84
2022/10/15 01:49:48;;;;;;;;;;;;;;;18.61;60.88;99727.19;4923447;28;7041;-84
2022/10/15 01:52:28;;;;;;;;;;;;;;;18.61;60.61;99722.00;4910451;29;8445;-84
2022/10/15 01:54:55;;;;;;;;;;;;;;;18.63;60.76;99719.44;4902163;29;8232;-84
2022/10/15 01:57:26;;;;;;;;;;;;;;;18.65;60.92;99723.78;4910165;29;7029;-84
2022/10/15 01:59:53;;;;;;;;;;;;;;;18.66;60.67;99720.31;4925090;28;8405;-84
2022/10/15 02:02:19;;;;;;;;;;;;;;;18.66;60.69;99720.31;4933129;28;7213;-84
2022/10/15 02:04:45;;;;;;;;;;;;;;;18.65;60.43;99708.22;4935201;28;7171;-84
2022/10/15 02:07:20;;;;;;;;;;;;;;;18.65;60.70;99722.91;4958761;28;7006;-84
2022/10/15 02:10:20;;;;;;;;;;;;;;;18.65;61.11;99723.78;4923360;29;7193;-84
2022/10/15 02:13:08;;;;;;;;;;;;;;;18.66;60.81;99714.25;4924723;28;7208;-84
2022/10/15 02:16:05;;;;;;;;;;;;;;;18.66;60.63;99720.31;4958720;28;7223;-84
2022/10/15 02:19:06;;;;;;;;;;;;;;;18.66;61.14;99717.72;4926957;29;7451;-84
2022/10/15 02:21:56;;;;;;;;;;;;;;;18.67;60.90;99718.56;4927994;28;7047;-84
2022/10/15 02:24:27;;;;;;;;;;;;;;;18.65;61.08;99713.41;4954434;28;7009;-84
2022/10/15 02:26:58;;;;;;;;;;;;;;;18.67;60.29;99718.56;4920493;28;7059;-84
2022/10/15 02:29:31;;;;;;;;;;;;;;;18.69;60.57;99720.31;4937815;28;7007;-84
2022/10/15 02:31:59;;;;;;;;;;;;;;;18.69;60.75;99722.91;4954031;28;7445;-84
2022/10/15 02:34:29;;;;;;;;;;;;;;;18.73;60.83;99728.97;4917661;29;7788;-84
2022/10/15 02:37:00;;;;;;;;;;;;;;;18.72;60.50;99728.09;4926872;29;7001;-85
2022/10/15 02:39:25;;;;;;;;;;;;;;;18.73;60.67;99724.69;4909775;29;6982;-85
2022/10/15 02:41:53;;;;;;;;;;;;;;;18.73;60.35;99716.00;4933668;28;8437;-85
2022/10/15 02:44:20;;;;;;;;;;;;;;;18.73;60.59;99711.69;4956231;28;7325;-85
2022/10/15 02:46:45;;;;;;;;;;;;;;;18.76;60.67;99716.00;4948472;28;7079;-85
2022/10/15 02:49:11;;;;;;;;;;;;;;;18.76;60.26;99709.97;4925471;29;6919;-84
2022/10/15 02:51:37;;;;;;;;;;;;;;;18.78;60.57;99713.44;4926619;29;6776;-84
2022/10/15 02:54:05;;;;;;;;;;;;;;;18.77;60.54;99712.56;4942419;28;6969;-85
2022/10/15 02:56:31;;;;;;;;;;;;;;;18.76;60.89;99703.03;4934470;28;7239;-85
2022/10/15 02:58:57;;;;;;;;;;;;;;;18.78;60.45;99710.84;4926310;29;7248;-85
2022/10/15 03:01:23;;;;;;;;;;;;;;;18.79;60.41;99700.47;4902308;29;7374;-84
2022/10/15 03:03:48;;;;;;;;;;;;;;;18.81;60.73;99692.66;4961467;28;7172;-85
2022/10/15 03:06:14;;;;;;;;;;;;;;;18.78;60.16;99687.47;4930252;28;6773;-84
2022/10/15 03:08:43;;;;;;;;;;;;;;;18.77;60.10;99689.19;4941768;28;6768;-84
2022/10/15 03:11:10;;;;;;;;;;;;;;;18.78;60.15;99685.72;4933270;28;7013;-85
2022/10/15 03:13:38;;;;;;;;;;;;;;;18.76;60.04;99686.59;4933217;28;8419;-85
2022/10/15 03:16:05;;;;;;;;;;;;;;;18.73;60.35;99690.94;4946828;28;8413;-85
2022/10/15 03:18:31;;;;;;;;;;;;;;;18.70;60.42;99685.72;4902097;29;7061;-85
2022/10/15 03:20:58;;;;;;;;;;;;;;;18.67;60.40;99684.84;4935907;28;7055;-85
2022/10/15 03:23:24;;;;;;;;;;;;;;;18.63;60.59;99691.75;4929449;28;6971;-85
2022/10/15 03:25:51;;;;;;;;;;;;;;;18.59;60.16;99698.66;4926111;28;6982;-85
2022/10/15 03:28:17;;;;;;;;;;;;;;;18.54;60.54;99694.28;4941494;28;7242;-85
2022/10/15 03:30:42;;;;;;;;;;;;;;;18.46;60.55;99687.38;4932272;28;8729;-85
2022/10/15 03:33:08;;;;;;;;;;;;;;;18.40;60.51;99689.06;4943829;28;7005;-84
2022/10/15 03:35:35;;;;;;;;;;;;;;;18.36;61.25;99685.59;4919926;29;8473;-85
2022/10/15 03:38:00;;;;;;;;;;;;;;;18.34;61.11;99689.88;4930273;29;6997;-85
2022/10/15 03:40:26;;;;;;;;;;;;;;;18.31;61.30;99682.09;4929762;28;6947;-85
2022/10/15 03:42:52;;;;;;;;;;;;;;;18.31;61.07;99692.47;4926443;29;7217;-85
2022/10/15 03:45:19;;;;;;;;;;;;;;;18.31;61.42;99684.69;4944016;28;6976;-84
2022/10/15 03:47:45;;;;;;;;;;;;;;;18.31;61.67;99692.47;4941017;28;6943;-84
2022/10/15 03:50:11;;;;;;;;;;;;;;;18.29;61.59;99689.88;4920450;28;6974;-86
2022/10/15 03:52:38;;;;;;;;;;;;;;;18.29;61.59;99696.78;4946681;28;6991;-84
2022/10/15 03:55:05;;;;;;;;;;;;;;;18.28;61.27;99697.66;4918469;28;8507;-85
2022/10/15 03:57:31;;;;;;;;;;;;;;;18.29;62.04;99696.78;4956679;28;6964;-85
2022/10/15 03:59:57;;;;;;;;;;;;;;;18.28;61.19;99695.06;4953554;28;7037;-86
2022/10/15 04:02:24;;;;;;;;;;;;;;;18.27;61.89;99699.38;4956643;28;7366;-85
2022/10/15 04:04:53;;;;;;;;;;;;;;;18.27;61.64;99690.75;4932562;28;6977;-85
2022/10/15 04:07:20;;;;;;;;;;;;;;;18.27;61.69;99686.41;4935740;28;6979;-82
2022/10/15 04:09:46;;;;;;;;;;;;;;;18.30;61.49;99688.16;4941444;28;6926;-83
2022/10/15 04:12:12;;;;;;;;;;;;;;;18.33;61.93;99685.56;4939670;28;6768;-81
2022/10/15 04:14:39;;;;;;;;;;;;;;;18.34;62.05;99682.09;4919839;28;7675;-84
2022/10/15 04:17:06;;;;;;;;;;;;;;;18.38;61.90;99683.88;4929768;29;7388;-84
2022/10/15 04:19:32;;;;;;;;;;;;;;;18.41;61.87;99675.25;4941551;28;7083;-84
2022/10/15 04:21:58;;;;;;;;;;;;;;;18.38;61.39;99663.13;4943179;28;7234;-83
2022/10/15 04:24:24;;;;;;;;;;;;;;;18.33;61.27;99670.00;4919479;28;6771;-83
2022/10/15 04:26:49;;;;;;;;;;;;;;;18.26;61.63;99673.44;4940489;28;7199;-84
2022/10/15 04:29:16;;;;;;;;;;;;;;;18.14;61.02;99675.09;4929198;29;6788;-84
2022/10/15 04:31:43;;;;;;;;;;;;;;;18.05;60.88;99677.63;4959894;28;8490;-84
2022/10/15 04:34:09;;;;;;;;;;;;;;;17.94;60.84;99680.16;4935558;28;8723;-84
2022/10/15 04:36:35;;;;;;;;;;;;;;;17.83;61.23;99680.06;4959047;28;8407;-84
2022/10/15 04:39:01;;;;;;;;;;;;;;;17.74;61.10;99680.00;4962318;28;6783;-84
2022/10/15 04:41:27;;;;;;;;;;;;;;;17.66;61.61;99682.56;4937411;28;8451;-84
2022/10/15 04:43:53;;;;;;;;;;;;;;;17.62;61.63;99688.56;4934804;28;7093;-83
2022/10/15 04:46:21;;;;;;;;;;;;;;;17.61;62.20;99681.63;4918350;29;6938;-83
2022/10/15 04:48:47;;;;;;;;;;;;;;;17.63;61.99;99677.34;4924667;28;7087;-84
2022/10/15 04:51:17;;;;;;;;;;;;;;;17.67;62.67;99683.41;4934280;28;7824;-84
2022/10/15 04:53:43;;;;;;;;;;;;;;;17.71;62.78;99685.19;4933846;28;7129;-84
2022/10/15 04:56:18;;;;;;;;;;;;;;;17.75;62.79;99686.91;4925793;28;7037;-84
2022/10/15 04:58:46;;;;;;;;;;;;;;;17.79;62.79;99670.56;4934092;28;6980;-84
2022/10/15 05:01:17;;;;;;;;;;;;;;;17.86;63.07;99681.81;4925553;28;7183;-84
2022/10/15 05:03:46;;;;;;;;;;;;;;;17.91;62.68;99678.41;4952041;28;7418;-85
2022/10/15 05:06:17;;;;;;;;;;;;;;;17.97;62.61;99680.16;4942920;28;8464;-84
2022/10/15 05:08:44;;;;;;;;;;;;;;;18.04;62.55;99683.69;4941931;28;7016;-84
2022/10/15 05:11:17;;;;;;;;;;;;;;;18.07;63.00;99678.53;4951607;28;6956;-85
2022/10/15 05:13:43;;;;;;;;;;;;;;;18.11;62.60;99677.69;4906736;29;7018;-84
2022/10/15 05:16:21;;;;;;;;;;;;;;;18.15;63.03;99675.97;4949175;28;6974;-83
2022/10/15 05:18:50;;;;;;;;;;;;;;;18.19;63.20;99669.94;4926314;28;8463;-83
2022/10/15 05:21:19;;;;;;;;;;;;;;;18.25;62.18;99682.06;4934683;28;10019;-84
2022/10/15 05:23:46;;;;;;;;;;;;;;;18.26;62.54;99678.63;4933251;28;8600;-84
2022/10/15 05:26:21;;;;;;;;;;;;;;;18.27;62.67;99670.00;4899956;29;9023;-84
2022/10/15 05:28:49;;;;;;;;;;;;;;;18.28;62.63;99671.72;4931549;28;7050;-88
2022/10/15 05:31:18;;;;;;;;;;;;;;;18.30;62.28;99664.81;4905582;29;8489;-85
2022/10/15 05:33:45;;;;;;;;;;;;;;;18.28;62.04;99669.13;4897754;28;8590;-84
2022/10/15 05:36:28;;;;;;;;;;;;;;;18.27;62.36;99670.00;4917919;28;6802;-84
2022/10/15 05:38:56;;;;;;;;;;;;;;;18.23;62.19;99665.63;4913842;28;8434;-82
2022/10/15 05:41:21;;;;;;;;;;;;;;;18.20;62.27;99666.47;4904126;29;8440;-81
2022/10/15 05:43:49;;;;;;;;;;;;;;;18.19;62.51;99669.94;4896206;28;8477;-83
2022/10/15 05:46:17;;;;;;;;;;;;;;;18.18;62.15;99670.78;4948215;28;6800;-83
2022/10/15 05:48:46;;;;;;;;;;;;;;;18.21;62.19;99675.13;4911533;28;7234;-82
2022/10/15 05:51:12;;;;;;;;;;;;;;;18.20;62.52;99663.88;4947767;28;7157;-83
2022/10/15 05:53:39;;;;;;;;;;;;;;;18.21;62.63;99664.75;4916679;28;7179;-81
2022/10/15 05:56:07;;;;;;;;;;;;;;;18.23;62.81;99676.88;4898288;28;9422;-84
2022/10/15 05:58:35;;;;;;;;;;;;;;;18.26;62.48;99665.66;4929349;28;7238;-88
2022/10/15 06:01:07;;;;;;;;;;;;;;;18.29;62.28;99663.94;4892518;28;8914;-82
2022/10/15 06:03:33;;;;;;;;;;;;;;;18.30;62.48;99675.19;4928148;28;7008;-82
2022/10/15 06:06:00;;;;;;;;;;;;;;;18.31;62.40;99682.97;4943092;28;8368;-82
2022/10/15 06:08:30;;;;;;;;;;;;;;;18.33;62.13;99675.19;4908701;28;7245;-82
2022/10/15 06:11:03;;;;;;;;;;;;;;;18.34;62.16;99676.06;4945643;28;6942;-82
2022/10/15 06:13:28;;;;;;;;;;;;;;;18.36;61.94;99683.00;4912320;28;8038;-82
2022/10/15 06:15:54;;;;;;;;;;;;;;;18.37;61.98;99682.16;4913116;28;7411;-82
2022/10/15 06:18:20;;;;;;;;;;;;;;;18.40;62.16;99687.34;4948361;28;7215;-82
2022/10/15 06:20:52;;;;;;;;;;;;;;;18.44;62.29;99691.66;4928525;28;7002;-82
2022/10/15 06:23:18;;;;;;;;;;;;;;;18.48;62.24;99678.72;4902147;29;8675;-82
2022/10/15 06:25:44;;;;;;;;;;;;;;;18.53;62.42;99679.59;4912802;29;7056;-82
2022/10/15 06:28:10;;;;;;;;;;;;;;;18.58;62.25;99685.69;4911045;28;8874;-82
2022/10/15 06:30:36;;;;;;;;;;;;;;;18.60;62.04;99677.03;4913973;28;7251;-82
2022/10/15 06:33:01;;;;;;;;;;;;;;;18.64;62.06;99669.25;4911519;28;6796;-82
2022/10/15 06:35:32;;;;;;;;;;;;;;;18.65;62.02;99676.19;4910664;28;6947;-81
2022/10/15 06:38:03;;;;;;;;;;;;;;;18.66;61.77;99678.78;4938567;28;6859;-81
2022/10/15 06:40:30;;;;;;;;;;;;;;;18.68;61.91;99671.88;4911678;29;8146;-82
2022/10/15 06:43:06;;;;;;;;;;;;;;;18.71;61.71;99677.06;4943796;28;8827;-82
2022/10/15 06:45:38;;;;;;;;;;;;;;;18.76;61.49;99681.41;4933229;28;6985;-82
2022/10/15 06:48:05;;;;;;;;;;;;;;;18.80;61.13;99693.53;4901911;29;7238;-82
2022/10/15 06:50:33;;;;;;;;;;;;;;;18.85;61.21;99694.41;4913087;29;7094;-82
2022/10/15 06:52:58;;;;;;;;;;;;;;;18.89;61.84;99688.38;4912713;29;6988;-82
2022/10/15 06:55:24;;;;;;;;;;;;;;;18.91;61.24;99689.22;4944518;28;8489;-82
2022/10/15 06:57:50;;;;;;;;;;;;;;;18.95;61.24;99700.50;4948916;28;7300;-82
2022/10/15 07:00:16;;;;;;;;;;;;;;;18.97;61.39;99696.16;4918556;28;7208;-84
2022/10/15 07:02:42;;;;;;;;;;;;;;;19.02;61.48;99691.88;4914041;29;7239;-84
2022/10/15 07:05:08;;;;;;;;;;;;;;;19.05;60.79;99683.25;4902962;29;7005;-84
2022/10/15 07:07:34;;;;;;;;;;;;;;;19.05;61.24;99670.25;4899954;29;6983;-84
2022/10/15 07:09:59;;;;;;;;;;;;;;;19.08;60.95;99671.13;4918087;29;8652;-85
2022/10/15 07:12:25;;;;;;;;;;;;;;;19.13;60.70;99665.94;4951848;28;6941;-85
2022/10/15 07:14:52;;;;;;;;;;;;;;;19.14;60.85;99665.94;4922704;29;7226;-84
2022/10/15 07:17:17;;;;;;;;;;;;;;;19.18;61.17;99656.41;4908579;29;6945;-85
2022/10/15 07:19:43;;;;;;;;;;;;;;;19.23;60.75;99659.91;4929921;29;6779;-84
2022/10/15 07:22:09;;;;;;;;;;;;;;;19.28;60.71;99652.09;4941129;29;6983;-85
2022/10/15 07:24:35;;;;;;;;;;;;;;;19.36;60.50;99650.38;4940116;28;8468;-85
2022/10/15 07:27:01;;;;;;;;;;;;;;;19.43;61.32;99640.84;4931645;28;8696;-85
2022/10/15 07:29:27;;;;;;;;;;;;;;;19.51;60.86;99644.31;4931676;29;6967;-86
2022/10/15 07:31:52;;;;;;;;;;;;;;;19.57;60.25;99640.84;4911674;29;7238;-84
2022/10/15 07:34:18;;;;;;;;;;;;;;;19.62;60.41;99643.44;4934922;28;6788;-85
2022/10/15 07:36:44;;;;;;;;;;;;;;;19.64;60.23;99633.88;4908170;29;7041;-84
2022/10/15 07:39:09;;;;;;;;;;;;;;;19.66;59.95;99642.53;4930260;28;6956;-85
2022/10/15 07:41:35;;;;;;;;;;;;;;;19.65;60.15;99631.28;4952484;28;6962;-86
2022/10/15 07:44:01;;;;;;;;;;;;;;;19.68;60.29;99636.47;4950095;28;6820;-86
2022/10/15 07:46:27;;;;;;;;;;;;;;;19.71;60.13;99633.88;4938644;28;8482;-85
2022/10/15 07:48:53;;;;;;;;;;;;;;;19.77;60.34;99630.38;4926866;28;6942;-83
2022/10/15 07:51:18;;;;;;;;;;;;;;;19.84;60.34;99626.03;4931544;28;7226;-84
2022/10/15 07:53:46;;;;;;;;;;;;;;;19.96;60.38;99630.38;4938241;28;6928;-84
2022/10/15 07:56:14;;;;;;;;;;;;;;;20.05;60.08;99625.13;4935288;28;7243;-75
2022/10/15 07:58:50;;;;;;;;;;;;;;;20.12;60.01;99623.38;4930166;28;6994;-85
2022/10/15 08:01:19;;;;;;;;;;;;;;;20.20;59.66;99625.97;4931076;28;7279;-85
2022/10/15 08:03:44;;;;;;;;;;;;;;;20.21;59.40;99627.69;4926748;28;8874;-85
2022/10/15 08:06:10;;;;;;;;;;;;;;;20.23;59.50;99628.53;4936363;28;6932;-85
2022/10/15 08:08:36;;;;;;;;;;;;;;;20.25;59.06;99621.59;4944932;28;7324;-85
2022/10/15 08:11:11;;;;;;;;;;;;;;;20.30;59.35;99614.66;4950077;28;6953;-85
2022/10/15 08:13:40;;;;;;;;;;;;;;;20.38;59.40;99610.28;4901301;29;6984;-85
2022/10/15 08:16:08;;;;;;;;;;;;;;;20.47;59.15;99606.75;4923648;28;10025;-85
2022/10/15 08:18:35;;;;;;;;;;;;;;;20.58;58.93;99609.31;4947552;28;7008;-88
2022/10/15 08:21:01;;;;;;;;;;;;;;;20.65;59.09;99603.16;4935878;28;6990;-85
2022/10/15 08:23:27;;;;;;;;;;;;;;;20.69;58.91;99601.41;4921886;28;7317;-85
2022/10/15 08:25:53;;;;;;;;;;;;;;;20.76;58.99;99604.81;4924352;28;7134;-85
2022/10/15 08:28:18;;;;;;;;;;;;;;;20.83;58.84;99609.16;4900952;29;8277;-86
2022/10/15 08:30:44;;;;;;;;;;;;;;;20.89;58.59;99608.25;4919983;28;8028;-85
2022/10/15 08:33:10;;;;;;;;;;;;;;;20.93;58.42;99613.44;4930930;28;7054;-86
2022/10/15 08:35:37;;;;;;;;;;;;;;;20.98;58.31;99613.41;4929162;28;8379;-85
2022/10/15 08:38:04;;;;;;;;;;;;;;;21.02;58.49;99607.31;4931271;28;8449;-85
2022/10/15 08:40:30;;;;;;;;;;;;;;;21.12;58.30;99612.44;4935996;28;9897;-89
2022/10/15 08:42:56;;;;;;;;;;;;;;;21.21;58.45;99605.41;4903963;28;7231;-89
2022/10/15 08:45:43;;;;;;;;;;;;;;;21.31;58.23;99600.09;4903039;29;8422;-89
2022/10/15 08:48:26;;;;;;;;;;;;;;;21.46;58.39;99604.31;4906723;29;7008;-87
2022/10/15 08:51:26;;;;;;;;;;;;;;;21.61;58.28;99598.97;4914627;28;7499;-91
2022/10/15 08:54:25;;;;;;;;;;;;;;;21.77;57.89;99599.69;4912998;29;6846;-90
2022/10/15 08:58:12;;;;;;;;;;;;;;;21.94;57.40;99602.97;4912347;29;7009;-83
2022/10/15 09:00:51;;;;;;;;;;;;;;;22.03;57.32;99593.31;4927469;28;7529;-81
2022/10/15 09:03:32;;;;;;;;;;;;;;;22.11;57.28;99597.53;4914625;28;8940;-82
2022/10/15 09:06:27;;;;;;;;;;;;;;;22.17;57.15;99593.13;4914539;28;7031;-81
2022/10/15 09:09:16;;;;;;;;;;;;;;;22.18;56.99;99602.69;4914611;28;7228;-81
2022/10/15 09:12:34;;;;;;;;;;;;;;;22.17;56.86;99597.47;4946665;28;7227;-86
2022/10/15 09:15:04;;;;;;;;;;;;;;;22.16;56.40;99599.25;4934815;28;6990;-85
2022/10/15 09:17:35;;;;;;;;;;;;;;;22.05;56.26;99599.38;4931799;28;7251;-81
2022/10/15 09:20:12;;;;;;;;;;;;;;;21.89;56.39;99600.41;4942411;28;8237;-81
2022/10/15 09:22:38;;;;;;;;;;;;;;;21.65;56.44;99594.56;4918495;28;7015;-80
2022/10/15 09:25:20;;;;;;;;;;;;;;;21.47;57.04;99587.78;4919718;28;7712;-81
2022/10/15 09:27:49;;;;;;;;;;;;;;;21.31;57.19;99584.47;4948862;28;7012;-80
2022/10/15 09:30:28;;;;;;;;;;;;;;;21.18;58.03;99584.59;4930718;28;6888;-81
2022/10/15 09:33:36;;;;;;;;;;;;;;;21.10;58.59;99581.19;4942573;28;7176;-85
2022/10/15 09:36:17;;;;;;;;;;;;;;;21.08;58.51;99582.94;4946422;28;7050;-82
2022/10/15 09:39:12;;;;;;;;;;;;;;;21.06;58.77;99579.50;4930290;28;8765;-82
2022/10/15 09:42:12;;;;;;;;;;;;;;;21.01;59.14;99576.03;4917697;28;7075;-83
2022/10/15 09:44:43;;;;;;;;;;;;;;;20.98;59.45;99570.88;4944852;28;6997;-85
2022/10/15 09:47:33;;;;;;;;;;;;;;;21.00;59.65;99567.34;4910742;28;6888;-84
2022/10/15 09:49:59;;;;;;;;;;;;;;;21.05;60.11;99569.91;4916122;28;6907;-83
2022/10/15 09:53:18;;;;;;;;;;;;;;;21.16;60.21;99564.63;4914339;29;7015;-81
2022/10/15 09:56:06;;;;;;;;;;;;;;;21.27;59.78;99569.75;4919660;28;6816;-84
2022/10/15 09:58:47;;;;;;;;;;;;;;;21.35;59.64;99566.19;4947761;28;6864;-85
2022/10/15 10:01:28;;;;;;;;;;;;;;;21.39;59.68;99572.22;4920631;28;7166;-84
2022/10/15 10:04:17;;;;;;;;;;;;;;;21.38;60.15;99560.09;4920532;28;7237;-85
2022/10/15 10:07:06;;;;;;;;;;;;;;;21.41;59.94;99557.44;4934189;28;6924;-87
2022/10/15 10:09:48;;;;;;;;;;;;;;;21.47;60.46;99552.16;4920611;29;7352;-81
2022/10/15 10:12:24;;;;;;;;;;;;;;;21.60;60.45;99552.03;4932008;28;7205;-87
2022/10/15 10:15:21;;;;;;;;;;;;;;;21.90;60.50;99563.03;4945638;28;6811;-80
2022/10/15 10:17:55;;;;;;;;;;;;;;;22.33;60.44;99549.44;4919894;29;7372;-82
2022/10/15 10:20:27;;;;;;;;;;;;;;;22.77;59.47;99550.56;4910394;29;6904;-85
2022/10/15 10:22:58;;;;;;;;;;;;;;;23.06;58.46;99552.66;4930463;28;6828;-81
2022/10/15 10:25:41;;;;;;;;;;;;;;;23.26;57.86;99554.94;4924829;28;7527;-80
2022/10/15 10:28:12;;;;;;;;;;;;;;;23.40;57.07;99532.94;4906736;29;8821;-81
2022/10/15 10:30:41;;;;;;;;;;;;;;;23.56;57.53;99547.44;4947854;28;7020;-81
2022/10/15 10:33:13;;;;;;;;;;;;;;;23.88;57.18;99547.72;4929791;28;7038;-80
2022/10/15 10:35:49;;;;;;;;;;;;;;;24.16;55.55;99552.38;4924401;28;6987;-81
2022/10/15 10:38:21;;;;;;;;;;;;;;;24.30;56.05;99539.00;4914187;28;7004;-81
2022/10/15 10:40:59;;;;;;;;;;;;;;;24.50;55.37;99535.91;4902961;29;8496;-81
2022/10/15 10:43:29;;;;;;;;;;;;;;;24.78;54.48;99544.91;4945053;28;7168;-81
2022/10/15 10:45:59;;;;;;;;;;;;;;;24.90;54.36;99534.13;4907901;29;7240;-81
2022/10/15 10:48:38;;;;;;;;;;;;;;;25.01;54.16;99535.59;4915843;29;7274;-80
2022/10/15 10:51:29;;;;;;;;;;;;;;;25.07;53.48;99533.69;4899031;29;7015;-81
2022/10/15 10:54:04;;;;;;;;;;;;;;;25.05;52.92;99538.09;4937708;28;7041;-81
2022/10/15 10:56:40;;;;;;;;;;;;;;;24.99;53.04;99537.41;4945419;28;6972;-86
2022/10/15 10:59:21;;;;;;;;;;;;;;;24.92;52.58;99523.59;4946894;28;8474;-85
2022/10/15 11:01:48;;;;;;;;;;;;;;;24.82;52.33;99526.47;4916670;28;7837;-83
2022/10/15 11:04:31;;;;;;;;;;;;;;;24.76;52.46;99537.03;4933180;28;8453;-86
2022/10/15 11:07:04;;;;;;;;;;;;;;;24.80;52.88;99535.25;4919652;29;8878;-80
2022/10/15 11:09:54;;;;;;;;;;;;;;;24.79;52.04;99529.13;4916610;29;6824;-82
2022/10/15 11:12:56;;;;;;;;;;;;;;;24.80;52.74;99528.22;4904019;29;7207;-83
2022/10/15 11:15:49;;;;;;;;;;;;;;;24.90;52.09;99523.63;4916005;29;6996;-83
2022/10/15 11:18:32;;;;;;;;;;;;;;;24.96;52.36;99533.09;4918971;29;7277;-80
2022/10/15 11:21:34;;;;;;;;;;;;;;;24.96;51.46;99535.72;4913459;29;7228;-84
2022/10/15 11:24:08;;;;;;;;;;;;;;;25.06;52.33;99534.56;4943624;28;7118;-82
2022/10/15 11:27:10;;;;;;;;;;;;;;;25.37;52.59;99525.88;4928284;28;7007;-79
2022/10/15 11:29:48;;;;;;;;;;;;;;;25.84;51.72;99522.00;4931360;29;6816;-86
2022/10/15 11:32:44;;;;;;;;;;;;;;;26.29;50.27;99527.72;4932562;28;8640;-84
2022/10/15 11:36:06;;;;;;;;;;;;;;;26.70;49.57;99525.53;4919827;29;7044;-83
2022/10/15 11:38:58;;;;;;;;;;;;;;;27.40;48.61;99530.19;4915608;28;6987;-81
2022/10/15 11:42:00;;;;;;;;;;;;;;;27.76;46.55;99532.44;4934455;28;6896;-85
2022/10/15 11:44:51;;;;;;;;;;;;;;;27.62;46.11;99521.56;4912683;29;8401;-80
2022/10/15 11:47:22;;;;;;;;;;;;;;;27.24;46.36;99529.91;4947752;28;6989;-79
2022/10/15 11:50:22;;;;;;;;;;;;;;;26.78;46.65;99527.03;4920988;28;7095;-82
2022/10/15 11:53:36;;;;;;;;;;;;;;;26.27;47.24;99524.25;4921214;28;7427;-78
2022/10/15 11:56:09;;;;;;;;;;;;;;;25.87;48.04;99537.66;4944066;28;7103;-82
2022/10/15 11:58:54;;;;;;;;;;;;;;;25.58;48.82;99531.47;4946354;28;8718;-82
2022/10/15 12:01:48;;;;;;;;;;;;;;;25.34;49.27;99527.72;4923180;28;7123;-83
2022/10/15 12:04:43;;;;;;;;;;;;;;;25.13;49.69;99529.19;4944401;28;7225;-83
2022/10/15 12:07:41;;;;;;;;;;;;;;;25.03;49.74;99524.19;4930614;28;8615;-82
2022/10/15 12:10:58;;;;;;;;;;;;;;;24.96;50.17;99515.63;4920343;28;6816;-81
2022/10/15 12:13:47;;;;;;;;;;;;;;;25.00;50.41;99518.16;4953300;28;7057;-81
2022/10/15 12:16:38;;;;;;;;;;;;;;;25.07;50.86;99519.72;4932623;28;7306;-87
2022/10/15 12:19:20;;;;;;;;;;;;;;;25.09;50.15;99508.28;4922318;29;6863;-87
2022/10/15 12:21:54;;;;;;;;;;;;;;;25.03;50.08;99513.69;4948225;28;7403;-89
2022/10/15 12:24:38;;;;;;;;;;;;;;;24.96;50.53;99497.28;4919949;28;9058;-87
2022/10/15 12:27:20;;;;;;;;;;;;;;;24.87;50.73;99520.22;4951101;28;7657;-89
2022/10/15 12:30:18;;;;;;;;;;;;;;;24.83;51.02;99516.81;4920026;29;6995;-89
2022/10/15 12:32:47;;;;;;;;;;;;;;;24.88;51.36;99514.97;4908408;29;12855;-87
2022/10/15 12:35:35;;;;;;;;;;;;;;;24.94;51.01;99520.03;4948213;28;7244;-89
2022/10/15 12:38:26;;;;;;;;;;;;;;;24.95;50.82;99518.28;4949096;28;7363;-88
2022/10/15 12:40:58;;;;;;;;;;;;;;;24.90;51.47;99523.63;4930826;28;7993;-87
2022/10/15 12:43:24;;;;;;;;;;;;;;;24.86;51.48;99523.75;4927830;28;7275;-87
2022/10/15 12:45:58;;;;;;;;;;;;;;;24.86;52.06;99518.50;4939740;28;6998;-88
2022/10/15 12:48:38;;;;;;;;;;;;;;;24.84;51.92;99518.53;4912887;28;7768;-90
2022/10/15 12:51:16;;;;;;;;;;;;;;;24.81;51.65;99509.00;4917419;29;7211;-87
2022/10/15 12:53:44;;;;;;;;;;;;;;;24.75;52.16;99501.25;4918091;28;7110;-85
2022/10/15 12:56:09;;;;;;;;;;;;;;;24.73;52.70;99500.44;4947399;28;7193;-89
2022/10/15 12:58:53;;;;;;;;;;;;;;;24.72;52.05;99496.09;4952085;28;7126;-90
2022/10/15 13:01:18;;;;;;;;;;;;;;;24.71;52.72;99489.13;4919848;28;7548;-88
2022/10/15 13:03:47;;;;;;;;;;;;;;;24.75;52.33;99492.53;4918468;28;7383;-83
2022/10/15 13:06:23;;;;;;;;;;;;;;;24.79;52.65;99507.31;4918109;28;6974;-89
2022/10/15 13:09:10;;;;;;;;;;;;;;;24.87;52.61;99496.66;4921572;28;7042;-88
2022/10/15 13:11:45;;;;;;;;;;;;;;;25.01;52.52;99501.53;4932489;28;8465;-88
2022/10/15 13:14:10;;;;;;;;;;;;;;;25.15;52.38;99495.91;4936865;28;6961;-88
2022/10/15 13:16:42;;;;;;;;;;;;;;;25.27;52.08;99500.81;4920330;28;7232;-86
2022/10/15 13:19:28;;;;;;;;;;;;;;;25.38;52.03;99492.69;4934689;28;6987;-82
2022/10/15 13:22:01;;;;;;;;;;;;;;;25.48;51.72;99488.88;4907956;29;6999;-81
2022/10/15 13:24:38;;;;;;;;;;;;;;;25.59;51.20;99491.25;4915396;28;6982;-83
2022/10/15 13:27:28;;;;;;;;;;;;;;;25.67;50.83;99490.16;4900796;29;8765;-82
2022/10/15 13:30:06;;;;;;;;;;;;;;;25.68;50.40;99484.00;4913493;28;7222;-82
2022/10/15 13:32:52;;;;;;;;;;;;;;;25.72;50.49;99483.84;4933593;28;8408;-84
2022/10/15 13:35:31;;;;;;;;;;;;;;;25.79;50.70;99481.94;4920466;29;7000;-85